createdAt,value
2018-03-08T00:00:08.442Z,99158.27
2018-03-08T00:02:35.901Z,99153.15
2018-03-08T00:05:03.333Z,99157.69
2018-03-08T00:07:31.048Z,99164.67
2018-03-08T00:09:58.481Z,99164.51
2018-03-08T00:12:25.917Z,99165.47
2018-03-08T00:14:53.499Z,99172.79
2018-03-08T00:17:20.947Z,99174.62
2018-03-08T00:19:48.414Z,99173.67
2018-03-08T00:22:15.857Z,99173.39
2018-03-08T00:24:43.313Z,99172.23
2018-03-08T00:27:10.769Z,99173.14
2018-03-08T00:29:38.221Z,99173.72
2018-03-08T00:32:05.707Z,99181.75
2018-03-08T00:34:33.146Z,99183.33
2018-03-08T00:37:00.876Z,99182.27
2018-03-08T00:39:28.361Z,99188.75
2018-03-08T00:41:55.805Z,99191.20
2018-03-08T00:44:23.597Z,99188.23
2018-03-08T00:46:51.070Z,99198.64
2018-03-08T00:49:18.529Z,99192.94
2018-03-08T00:51:45.985Z,99199.50
2018-03-08T00:54:13.424Z,99194.75
2018-03-08T00:56:41.157Z,99198.50
2018-03-08T00:59:08.593Z,99198.41
2018-03-08T01:01:36.049Z,99203.98
2018-03-08T01:04:03.505Z,99203.16
2018-03-08T01:06:30.949Z,99207.78
2018-03-08T01:08:58.435Z,99210.41
2018-03-08T01:11:25.869Z,99220.57
2018-03-08T01:13:53.316Z,99223.59
2018-03-08T01:16:20.777Z,99224.61
2018-03-08T01:18:48.213Z,99222.36
2018-03-08T01:21:15.768Z,99223.75
2018-03-08T01:23:43.218Z,99228.30
2018-03-08T01:26:10.664Z,99224.86
2018-03-08T01:28:38.149Z,99231.42
2018-03-08T01:31:05.587Z,99233.31
2018-03-08T01:33:33.098Z,99238.11
2018-03-08T01:36:00.533Z,99234.27
2018-03-08T01:38:27.994Z,99239.78
2018-03-08T01:40:55.461Z,99241.52
2018-03-08T01:43:22.934Z,99242.45
2018-03-08T01:45:50.407Z,99244.20
2018-03-08T01:48:17.900Z,99247.80
2018-03-08T01:50:45.357Z,99246.83
2018-03-08T01:53:12.816Z,99250.02
2018-03-08T01:55:40.254Z,99249.93
2018-03-08T01:58:07.730Z,99246.05
2018-03-08T02:00:35.197Z,99252.59
2018-03-08T02:03:02.636Z,99257.81
2018-03-08T02:05:30.113Z,99255.72
2018-03-08T02:07:57.549Z,99251.56
2018-03-08T02:10:25.025Z,99253.23
2018-03-08T02:12:52.465Z,99265.24
2018-03-08T02:15:19.929Z,99263.53
2018-03-08T02:17:47.390Z,99263.61
2018-03-08T02:20:14.829Z,99264.45
2018-03-08T02:22:42.593Z,99261.75
2018-03-08T02:25:10.032Z,99259.25
2018-03-08T02:27:37.465Z,99258.50
2018-03-08T02:30:04.942Z,99264.91
2018-03-08T02:32:32.425Z,99272.70
2018-03-08T02:35:00.408Z,99267.58
2018-03-08T02:37:27.865Z,99269.37
2018-03-08T02:39:55.319Z,99270.53
2018-03-08T02:42:22.774Z,99269.67
2018-03-08T02:44:50.266Z,99269.70
2018-03-08T02:47:17.742Z,99275.05
2018-03-08T02:49:45.178Z,99277.66
2018-03-08T02:52:12.634Z,99276.20
2018-03-08T02:54:40.097Z,99275.44
2018-03-08T02:57:07.545Z,99277.23
2018-03-08T02:59:35.145Z,99282.39
2018-03-08T03:02:02.592Z,99283.87
2018-03-08T03:04:30.029Z,99283.09
2018-03-08T03:06:57.485Z,99278.42
2018-03-08T03:09:24.929Z,99282.03
2018-03-08T03:11:52.601Z,99283.09
2018-03-08T03:14:20.045Z,99279.78
2018-03-08T03:16:47.510Z,99285.65
2018-03-08T03:19:14.995Z,99288.77
2018-03-08T03:21:42.457Z,99290.98
2018-03-08T03:24:09.919Z,99287.95
2018-03-08T03:26:37.393Z,99287.52
2018-03-08T03:29:04.838Z,99283.16
2018-03-08T03:31:32.307Z,99290.94
2018-03-08T03:33:59.754Z,99291.91
2018-03-08T03:36:27.376Z,99284.89
2018-03-08T03:38:54.813Z,99283.69
2018-03-08T03:41:22.253Z,99288.02
2018-03-08T03:43:49.769Z,99290.38
2018-03-08T03:46:17.210Z,99286.95
2018-03-08T03:48:44.682Z,99289.91
2018-03-08T03:51:12.113Z,99290.73
2018-03-08T03:53:39.553Z,99292.17
2018-03-08T03:56:07.011Z,99289.38
2018-03-08T03:58:34.473Z,99290.52
2018-03-08T04:01:07.949Z,99300.34
2018-03-08T04:03:35.385Z,99300.54
2018-03-08T04:06:02.826Z,99304.12
2018-03-08T04:08:30.289Z,99307.27
2018-03-08T04:10:57.725Z,99312.95
2018-03-08T04:13:25.282Z,99307.94
2018-03-08T04:15:52.722Z,99310.85
2018-03-08T04:18:20.163Z,99305.56
2018-03-08T04:20:47.637Z,99312.08
2018-03-08T04:23:15.086Z,99323.22
2018-03-08T04:25:42.550Z,99331.93
2018-03-08T04:28:10.000Z,99328.37
2018-03-08T04:30:37.433Z,99325.38
2018-03-08T04:33:04.898Z,99318.84
2018-03-08T04:35:32.349Z,99317.14
2018-03-08T04:37:59.813Z,99321.46
2018-03-08T04:40:27.264Z,99321.42
2018-03-08T04:42:54.697Z,99322.59
2018-03-08T04:45:22.165Z,99325.81
2018-03-08T04:47:49.614Z,99316.98
2018-03-08T04:50:17.221Z,99318.89
2018-03-08T04:52:44.673Z,99321.36
2018-03-08T04:55:12.113Z,99325.67
2018-03-08T04:57:39.582Z,99331.64
2018-03-08T05:00:07.023Z,99336.80
2018-03-08T05:02:34.660Z,99331.20
2018-03-08T05:05:02.098Z,99338.77
2018-03-08T05:07:29.542Z,99339.63
2018-03-08T05:09:57.006Z,99331.17
2018-03-08T05:12:24.469Z,99329.76
2018-03-08T05:14:52.330Z,99328.80
2018-03-08T05:17:19.808Z,99330.55
2018-03-08T05:19:47.229Z,99329.74
2018-03-08T05:22:14.708Z,99335.44
2018-03-08T05:24:42.153Z,99338.09
2018-03-08T05:27:09.621Z,99343.91
2018-03-08T05:29:37.085Z,99333.97
2018-03-08T05:32:04.549Z,99340.52
2018-03-08T05:34:32.005Z,99344.00
2018-03-08T05:36:59.474Z,99346.08
2018-03-08T05:39:26.969Z,99346.56
2018-03-08T05:41:54.423Z,99342.05
2018-03-08T05:44:21.866Z,99351.23
2018-03-08T05:46:49.329Z,99359.03
2018-03-08T05:49:16.770Z,99359.53
2018-03-08T05:51:44.393Z,99370.23
2018-03-08T05:54:11.833Z,99366.59
2018-03-08T05:56:39.290Z,99363.98
2018-03-08T05:59:06.757Z,99360.44
2018-03-08T06:01:34.205Z,99355.93
2018-03-08T06:04:01.829Z,99368.92
2018-03-08T06:06:29.282Z,99365.42
2018-03-08T06:08:56.747Z,99368.98
2018-03-08T06:11:24.221Z,99373.59
2018-03-08T06:13:51.665Z,99371.43
2018-03-08T06:16:19.171Z,99374.03
2018-03-08T06:18:46.625Z,99378.33
2018-03-08T06:21:14.069Z,99377.50
2018-03-08T06:23:41.534Z,99380.83
2018-03-08T06:26:08.996Z,99384.55
2018-03-08T06:28:36.625Z,99391.02
2018-03-08T06:31:04.086Z,99392.22
2018-03-08T06:33:31.550Z,99395.71
2018-03-08T06:35:59.014Z,99399.56
2018-03-08T06:38:26.461Z,99400.73
2018-03-08T06:40:53.946Z,99398.11
2018-03-08T06:43:21.389Z,99407.52
2018-03-08T06:45:48.830Z,99399.87
2018-03-08T06:48:16.289Z,99406.36
2018-03-08T06:50:43.729Z,99399.70
2018-03-08T06:53:11.326Z,99406.00
2018-03-08T06:55:38.774Z,99408.27
2018-03-08T06:58:06.221Z,99413.70
2018-03-08T07:00:33.689Z,99414.64
2018-03-08T07:03:01.142Z,99419.36
2018-03-08T07:05:28.618Z,99411.27
2018-03-08T07:07:56.382Z,99410.34
2018-03-08T07:10:23.879Z,99415.46
2018-03-08T07:12:51.345Z,99426.36
2018-03-08T07:15:18.791Z,99429.30
2018-03-08T07:17:46.262Z,99424.31
2018-03-08T07:20:13.697Z,99428.23
2018-03-08T07:22:41.133Z,99412.97
2018-03-08T07:25:08.591Z,99420.83
2018-03-08T07:27:36.034Z,99418.80
2018-03-08T07:30:03.677Z,99424.55
2018-03-08T07:32:31.121Z,99427.94
2018-03-08T07:34:58.571Z,99414.81
2018-03-08T07:37:26.038Z,99417.00
2018-03-08T07:39:53.479Z,99413.77
2018-03-08T07:42:21.125Z,99422.98
2018-03-08T07:44:48.579Z,99418.33
2018-03-08T07:47:16.033Z,99421.09
2018-03-08T07:49:43.490Z,99421.55
2018-03-08T07:52:10.930Z,99418.20
2018-03-08T07:54:38.590Z,99411.48
2018-03-08T07:57:06.054Z,99420.34
2018-03-08T07:59:33.522Z,99415.27
2018-03-08T08:02:00.992Z,99414.04
2018-03-08T08:04:40.201Z,99417.78
2018-03-08T08:07:19.441Z,99402.83
2018-03-08T08:09:46.890Z,99400.88
2018-03-08T08:12:14.361Z,99400.44
2018-03-08T08:14:41.793Z,99405.38
2018-03-08T08:17:09.278Z,99393.17
2018-03-08T08:19:36.717Z,99397.16
2018-03-08T08:22:04.153Z,99393.22
2018-03-08T08:24:31.625Z,99389.28
2018-03-08T08:26:59.061Z,99396.12
2018-03-08T08:29:26.561Z,99389.15
2018-03-08T08:31:54.010Z,99400.89
2018-03-08T08:34:21.457Z,99393.03
2018-03-08T08:36:48.918Z,99397.09
2018-03-08T08:39:16.375Z,99396.12
2018-03-08T08:41:43.957Z,99396.58
2018-03-08T08:44:11.390Z,99384.45
2018-03-08T08:46:38.831Z,99384.26
2018-03-08T08:49:06.316Z,99374.31
2018-03-08T08:51:33.758Z,99375.61
2018-03-08T08:54:01.397Z,99376.72
2018-03-08T08:56:28.846Z,99374.77
2018-03-08T08:58:56.296Z,99369.08
2018-03-08T09:01:23.750Z,99366.81
2018-03-08T09:03:51.182Z,99373.03
2018-03-08T09:06:18.822Z,99371.20
2018-03-08T09:08:46.266Z,99368.55
2018-03-08T09:11:13.709Z,99371.15
2018-03-08T09:13:41.174Z,99378.85
2018-03-08T09:16:08.613Z,99371.75
2018-03-08T09:18:36.077Z,99379.74
2018-03-08T09:21:03.538Z,99365.16
2018-03-08T09:23:30.970Z,99368.41
2018-03-08T09:25:58.428Z,99366.20
2018-03-08T09:28:25.889Z,99364.87
2018-03-08T09:30:53.446Z,99358.52
2018-03-08T09:33:20.878Z,99366.67
2018-03-08T09:35:48.318Z,99369.79
2018-03-08T09:38:15.802Z,99368.98
2018-03-08T09:40:43.237Z,99370.70
2018-03-08T09:43:10.902Z,99370.09
2018-03-08T09:45:38.434Z,99374.14
2018-03-08T09:48:05.893Z,99372.59
2018-03-08T09:50:33.353Z,99370.08
2018-03-08T09:53:00.785Z,99355.94
2018-03-08T09:55:28.257Z,99354.72
2018-03-08T09:57:55.699Z,99350.38
2018-03-08T10:00:23.137Z,99345.30
2018-03-08T10:02:50.609Z,99342.67
2018-03-08T10:05:18.046Z,99347.47
2018-03-08T10:07:45.653Z,99353.06
2018-03-08T10:10:13.109Z,99355.60
2018-03-08T10:12:40.553Z,99347.80
2018-03-08T10:15:08.015Z,99345.47
2018-03-08T10:17:35.484Z,99340.27
2018-03-08T10:20:02.958Z,99334.03
2018-03-08T10:22:30.393Z,99332.45
2018-03-08T10:24:57.832Z,99321.36
2018-03-08T10:27:25.290Z,99319.56
2018-03-08T10:29:52.726Z,99314.86
2018-03-08T10:32:20.386Z,99321.73
2018-03-08T10:34:47.854Z,99315.67
2018-03-08T10:37:15.418Z,99310.81
2018-03-08T10:39:42.934Z,99305.59
2018-03-08T10:42:10.365Z,99302.23
2018-03-08T10:44:37.841Z,99301.95
2018-03-08T10:47:05.288Z,99300.63
2018-03-08T10:49:32.725Z,99302.20
2018-03-08T10:52:00.183Z,99299.84
2018-03-08T10:54:27.633Z,99295.00
2018-03-08T10:56:55.286Z,99292.37
2018-03-08T10:59:22.721Z,99290.87
2018-03-08T11:01:55.784Z,99289.95
2018-03-08T11:04:28.342Z,99297.77
2018-03-08T11:06:55.809Z,99292.12
2018-03-08T11:09:23.281Z,99285.16
2018-03-08T11:11:50.733Z,99293.02
2018-03-08T11:14:18.189Z,99290.41
2018-03-08T11:16:45.638Z,99294.16
2018-03-08T11:19:13.273Z,99299.19
2018-03-08T11:21:41.309Z,99287.94
2018-03-08T11:24:08.742Z,99277.91
2018-03-08T11:26:36.223Z,99272.95
2018-03-08T11:29:03.674Z,99269.33
2018-03-08T11:31:31.328Z,99258.34
2018-03-08T11:33:58.782Z,99268.54
2018-03-08T11:36:26.238Z,99261.19
2018-03-08T11:38:53.701Z,99254.81
2018-03-08T11:41:21.143Z,99242.90
2018-03-08T11:43:48.786Z,99243.85
2018-03-08T11:46:16.241Z,99248.43
2018-03-08T11:48:43.693Z,99242.38
2018-03-08T11:51:11.159Z,99233.42
2018-03-08T11:53:38.621Z,99232.42
2018-03-08T11:56:06.310Z,99237.41
2018-03-08T11:58:33.753Z,99233.25
2018-03-08T12:01:01.220Z,99229.22
2018-03-08T12:03:28.718Z,99225.35
2018-03-08T12:05:56.200Z,99211.86
2018-03-08T12:08:23.664Z,99222.83
2018-03-08T12:10:51.102Z,99223.06
2018-03-08T12:13:18.561Z,99219.27
2018-03-08T12:15:46.031Z,99217.16
2018-03-08T12:18:13.480Z,99216.20
2018-03-08T12:20:40.953Z,99214.17
2018-03-08T12:23:08.397Z,99216.73
2018-03-08T12:25:35.848Z,99209.33
2018-03-08T12:28:03.329Z,99185.57
2018-03-08T12:30:30.773Z,99184.09
2018-03-08T12:32:58.246Z,99167.74
2018-03-08T12:35:25.716Z,99167.83
2018-03-08T12:37:53.160Z,99158.08
2018-03-08T12:40:20.662Z,99159.02
2018-03-08T12:42:48.137Z,99158.94
2018-03-08T12:45:15.750Z,99166.11
2018-03-08T12:47:43.189Z,99159.25
2018-03-08T12:50:10.641Z,99153.54
2018-03-08T12:52:38.112Z,99147.37
2018-03-08T12:55:05.562Z,99139.03
2018-03-08T12:57:33.191Z,99136.88
2018-03-08T13:00:00.642Z,99132.88
2018-03-08T13:02:28.081Z,99128.89
2018-03-08T13:04:55.553Z,99127.16
2018-03-08T13:07:23.005Z,99131.17
2018-03-08T13:09:50.481Z,99116.19
2018-03-08T13:12:17.925Z,99123.57
2018-03-08T13:14:45.387Z,99122.50
2018-03-08T13:17:12.859Z,99114.05
2018-03-08T13:19:41.644Z,99118.20
2018-03-08T13:22:09.310Z,99119.14
2018-03-08T13:24:36.756Z,99118.67
2018-03-08T13:27:04.218Z,99126.94
2018-03-08T13:29:31.681Z,99112.11
2018-03-08T13:31:59.130Z,99118.63
2018-03-08T13:34:26.570Z,99109.78
2018-03-08T13:36:54.061Z,99112.53
2018-03-08T13:39:21.526Z,99109.39
2018-03-08T13:41:48.973Z,99106.80
2018-03-08T13:44:16.445Z,99101.65
2018-03-08T13:46:43.885Z,99100.63
2018-03-08T13:49:23.566Z,99096.88
2018-03-08T13:51:51.005Z,99084.34
2018-03-08T13:54:18.449Z,99091.11
2018-03-08T13:56:45.925Z,99084.06
2018-03-08T13:59:13.366Z,99080.80
2018-03-08T14:01:40.806Z,99071.22
2018-03-08T14:04:08.266Z,99066.84
2018-03-08T14:06:35.721Z,99057.41
2018-03-08T14:09:03.161Z,99050.42
2018-03-08T14:11:30.786Z,99043.17
2018-03-08T14:13:58.253Z,99042.70
2018-03-08T14:16:25.692Z,99039.19
2018-03-08T14:18:53.465Z,99029.89
2018-03-08T14:21:20.921Z,99038.52
2018-03-08T14:23:48.359Z,99035.38
2018-03-08T14:26:15.831Z,99032.55
2018-03-08T14:28:43.278Z,99021.33
2018-03-08T14:31:10.885Z,99024.54
2018-03-08T14:33:38.337Z,99019.17
2018-03-08T14:36:05.773Z,99023.98
2018-03-08T14:38:33.250Z,99016.48
2018-03-08T14:41:00.957Z,99018.25
2018-03-08T14:43:28.421Z,99021.36
2018-03-08T14:45:56.661Z,99014.84
2018-03-08T14:48:24.112Z,99008.13
2018-03-08T14:50:51.577Z,98998.20
2018-03-08T14:53:19.013Z,98991.90
2018-03-08T14:55:46.522Z,98993.64
2018-03-08T14:58:14.004Z,98980.68
2018-03-08T15:00:41.453Z,98976.66
2018-03-08T15:03:08.989Z,98970.09
2018-03-08T15:05:36.440Z,98959.89
2018-03-08T15:08:04.154Z,98964.00
2018-03-08T15:10:31.604Z,98950.19
2018-03-08T15:12:59.066Z,98944.41
2018-03-08T15:15:26.799Z,98946.75
2018-03-08T15:17:54.269Z,98927.45
2018-03-08T15:20:21.738Z,98923.10
2018-03-08T15:22:49.181Z,98918.98
2018-03-08T15:25:16.625Z,98913.07
2018-03-08T15:27:44.150Z,98911.45
2018-03-08T15:30:11.586Z,98919.36
2018-03-08T15:32:39.097Z,98908.91
2018-03-08T15:35:06.551Z,98898.45
2018-03-08T15:37:33.999Z,98897.97
2018-03-08T15:40:01.509Z,98897.55
2018-03-08T15:42:28.918Z,98889.50
2018-03-08T15:44:56.397Z,98886.67
2018-03-08T15:47:23.864Z,98895.20
2018-03-08T15:49:51.310Z,98891.25
2018-03-08T15:52:18.844Z,98892.01
2018-03-08T15:54:46.292Z,98896.61
2018-03-08T15:57:13.757Z,98889.87
2018-03-08T15:59:41.196Z,98886.68
2018-03-08T16:02:08.827Z,98883.35
2018-03-08T16:04:36.313Z,98880.10
2018-03-08T16:10:21.137Z,98874.34
2018-03-08T16:12:49.149Z,98875.02
2018-03-08T16:15:16.601Z,98874.02
2018-03-08T16:17:44.059Z,98871.73
2018-03-08T16:20:11.547Z,98871.53
2018-03-08T16:22:39.001Z,98865.31
2018-03-08T16:25:06.589Z,98867.73
2018-03-08T16:27:34.030Z,98871.83
2018-03-08T16:30:01.474Z,98873.55
2018-03-08T16:32:28.957Z,98867.69
2018-03-08T16:34:56.425Z,98865.59
2018-03-08T16:37:24.135Z,98862.92
2018-03-08T16:39:51.618Z,98865.30
2018-03-08T16:42:20.074Z,98860.44
2018-03-08T16:44:47.566Z,98865.87
2018-03-08T16:47:15.015Z,98860.39
2018-03-08T16:49:42.839Z,98860.66
2018-03-08T16:52:10.287Z,98864.57
2018-03-08T16:54:37.727Z,98864.44
2018-03-08T16:57:05.218Z,98863.95
2018-03-08T16:59:32.697Z,98870.55
2018-03-08T17:02:00.166Z,98873.46
2018-03-08T17:04:27.606Z,98874.88
2018-03-08T17:06:55.075Z,98879.80
2018-03-08T17:09:22.579Z,98866.82
2018-03-08T17:11:50.001Z,98886.83
2018-03-08T17:14:17.717Z,98890.27
2018-03-08T17:16:45.161Z,98882.00
2018-03-08T17:19:12.605Z,98895.78
2018-03-08T17:21:40.090Z,98899.38
2018-03-08T17:24:07.535Z,98899.84
2018-03-08T17:26:35.001Z,98906.73
2018-03-08T17:29:02.437Z,98921.71
2018-03-08T17:31:29.877Z,98924.50
2018-03-08T17:33:57.341Z,98936.05
2018-03-08T17:36:24.793Z,98951.36
2018-03-08T17:38:52.409Z,98963.19
2018-03-08T17:41:19.862Z,98973.30
2018-03-08T17:43:47.310Z,98985.36
2018-03-08T17:46:14.905Z,98994.41
2018-03-08T17:48:42.367Z,99033.84
2018-03-08T17:51:10.161Z,99058.94
2018-03-08T17:53:37.603Z,99073.00
2018-03-08T17:56:05.065Z,99110.50
2018-03-08T17:58:32.523Z,99108.80
2018-03-08T18:01:00.409Z,99131.62
2018-03-08T18:03:27.878Z,99145.42
2018-03-08T18:05:55.322Z,99157.53
2018-03-08T18:08:22.762Z,99191.41
2018-03-08T18:10:50.261Z,99196.67
2018-03-08T18:13:17.697Z,99206.20
2018-03-08T18:15:45.493Z,99214.86
2018-03-08T18:18:12.933Z,99229.09
2018-03-08T18:20:41.385Z,99232.80
2018-03-08T18:23:08.852Z,99254.87
2018-03-08T18:25:36.286Z,99255.61
2018-03-08T18:28:03.800Z,99255.93
2018-03-08T18:30:31.233Z,99256.28
2018-03-08T18:32:58.673Z,99268.20
2018-03-08T18:35:26.294Z,99273.36
2018-03-08T18:37:53.760Z,99281.47
2018-03-08T18:40:21.217Z,99282.35
2018-03-08T18:42:48.654Z,99278.53
2018-03-08T18:45:16.450Z,99283.45
2018-03-08T18:47:44.078Z,99294.81
2018-03-08T18:50:11.534Z,99296.41
2018-03-08T18:52:39.005Z,99285.52
2018-03-08T18:55:06.441Z,99285.36
2018-03-08T18:57:34.093Z,99289.33
2018-03-08T19:00:01.625Z,99299.05
2018-03-08T19:02:29.073Z,99279.31
2018-03-08T19:04:56.542Z,99300.84
2018-03-08T19:07:24.010Z,99310.18
2018-03-08T19:09:51.761Z,99298.36
2018-03-08T19:12:19.229Z,99302.44
2018-03-08T19:14:46.678Z,99327.48
2018-03-08T19:17:14.161Z,99336.77
2018-03-08T19:19:41.620Z,99329.34
2018-03-08T19:22:09.522Z,99344.83
2018-03-08T19:24:36.962Z,99333.86
2018-03-08T19:27:04.482Z,99346.98
2018-03-08T19:29:31.945Z,99346.52
2018-03-08T19:31:59.386Z,99337.23
2018-03-08T19:34:26.900Z,99318.00
2018-03-08T19:36:54.404Z,99316.10
2018-03-08T19:39:21.846Z,99333.94
2018-03-08T19:41:49.309Z,99335.88
2018-03-08T19:44:16.745Z,99340.73
2018-03-08T19:46:44.509Z,99305.45
2018-03-08T19:49:13.345Z,99301.98
2018-03-08T19:51:40.794Z,99306.53
2018-03-08T19:54:08.250Z,99304.90
2018-03-08T19:56:35.702Z,99308.37
2018-03-08T19:59:03.200Z,99318.33
2018-03-08T20:01:30.637Z,99307.80
2018-03-08T20:03:58.946Z,99297.63
2018-03-08T20:06:26.413Z,99292.32
2018-03-08T20:08:53.852Z,99320.60
2018-03-08T20:11:21.355Z,99334.27
2018-03-08T20:13:48.806Z,99348.89
2018-03-08T20:16:16.257Z,99359.16
2018-03-08T20:18:43.721Z,99385.95
2018-03-08T20:21:11.157Z,99355.97
2018-03-08T20:23:38.641Z,99344.27
2018-03-08T20:26:06.856Z,99349.94
2018-03-08T20:28:34.293Z,99358.36
2018-03-08T20:31:01.761Z,99371.30
2018-03-08T20:33:29.217Z,99370.93
2018-03-08T20:35:56.691Z,99385.55
2018-03-08T20:38:24.379Z,99379.02
2018-03-08T20:40:51.816Z,99344.52
2018-03-08T20:43:19.277Z,99328.48
2018-03-08T20:45:46.810Z,99333.88
2018-03-08T20:48:14.289Z,99341.56
2018-03-08T20:50:41.726Z,99353.72
2018-03-08T20:53:09.174Z,99364.27
2018-03-08T20:55:36.665Z,99367.09
2018-03-08T20:58:04.133Z,99377.81
2018-03-08T21:00:31.635Z,99374.91
2018-03-08T21:02:59.090Z,99369.03
2018-03-08T21:05:26.530Z,99356.59
2018-03-08T21:07:54.006Z,99367.80
2018-03-08T21:10:21.441Z,99363.23
2018-03-08T21:12:49.029Z,99375.31
2018-03-08T21:15:16.490Z,99392.06
2018-03-08T21:17:43.939Z,99399.73
2018-03-08T21:20:11.405Z,99402.79
2018-03-08T21:22:38.854Z,99402.90
2018-03-08T21:25:06.466Z,99409.15
2018-03-08T21:27:33.916Z,99413.77
2018-03-08T21:30:01.350Z,99414.70
2018-03-08T21:32:28.810Z,99432.71
2018-03-08T21:34:56.246Z,99420.03
2018-03-08T21:37:23.817Z,99410.55
2018-03-08T21:39:51.266Z,99417.00
2018-03-08T21:42:18.709Z,99428.70
2018-03-08T21:44:46.165Z,99434.23
2018-03-08T21:47:13.605Z,99429.08
2018-03-08T21:49:41.268Z,99431.26
2018-03-08T21:52:08.705Z,99447.97
2018-03-08T21:54:36.170Z,99450.56
2018-03-08T21:57:03.625Z,99457.58
2018-03-08T21:59:31.117Z,99451.09
2018-03-08T22:01:58.746Z,99440.88
2018-03-08T22:04:26.187Z,99446.64
2018-03-08T22:06:53.621Z,99448.66
2018-03-08T22:09:21.083Z,99448.47
2018-03-08T22:11:48.526Z,99447.09
2018-03-08T22:14:16.177Z,99455.60
2018-03-08T22:16:43.631Z,99469.98
2018-03-08T22:19:11.067Z,99477.17
2018-03-08T22:21:38.542Z,99480.16
2018-03-08T22:24:05.977Z,99473.56
2018-03-08T22:26:33.625Z,99479.76
2018-03-08T22:29:01.059Z,99485.97
2018-03-08T22:31:28.501Z,99493.48
2018-03-08T22:33:55.957Z,99491.28
2018-03-08T22:36:23.392Z,99501.51
2018-03-08T22:38:50.862Z,99495.33
2018-03-08T22:41:18.298Z,99490.15
2018-03-08T22:43:45.738Z,99497.67
2018-03-08T22:46:13.197Z,99510.45
2018-03-08T22:48:40.638Z,99507.61
2018-03-08T22:51:08.130Z,99507.59
2018-03-08T22:53:35.568Z,99508.34
2018-03-08T22:56:03.016Z,99501.90
2018-03-08T22:58:30.473Z,99494.95
2018-03-08T23:00:57.911Z,99490.47
2018-03-08T23:03:29.332Z,99491.03
2018-03-08T23:05:56.766Z,99489.02
2018-03-08T23:08:24.209Z,99489.16
2018-03-08T23:10:51.677Z,99483.67
2018-03-08T23:13:19.137Z,99500.59
2018-03-08T23:15:46.570Z,99506.44
2018-03-08T23:18:14.047Z,99507.91
2018-03-08T23:20:41.493Z,99507.19
2018-03-08T23:23:09.234Z,99516.61
2018-03-08T23:25:36.678Z,99516.23
2018-03-08T23:28:04.133Z,99525.04
2018-03-08T23:30:31.589Z,99523.33
2018-03-08T23:32:59.022Z,99521.76
2018-03-08T23:35:26.494Z,99523.08
2018-03-08T23:37:53.934Z,99533.78
2018-03-08T23:40:21.369Z,99541.11
2018-03-08T23:42:48.833Z,99543.19
2018-03-08T23:45:16.278Z,99542.13
2018-03-08T23:47:43.766Z,99552.97
2018-03-08T23:50:11.202Z,99560.91
2018-03-08T23:52:38.646Z,99564.64
2018-03-08T23:55:06.101Z,99562.01
2018-03-08T23:57:33.542Z,99566.90
